Time;durP1;ratioP1;P1;durP2;ratioP2;P2;SDS_P1;SDS_P2;PMS_P1;PMS_P2;Temp;Humidity;BMP_temperature;BMP_pressure;BME280_temperature;BME280_humidity;BME280_pressure;Samples;Min_cycle;Max_cycle;Signal;HPM_P1;HPM_P2
2023/05/21 00:03:48;;;;;;;14.00;11.32;;;;;;;17.16;68.29;99988.38;10389148;28;20053;-55
2023/05/21 00:08:50;;;;;;;14.27;11.68;;;;;;;17.11;67.71;99964.69;10388178;28;20053;-56
2023/05/21 00:13:52;;;;;;;11.88;10.68;;;;;;;17.10;68.24;99984.53;10385952;28;20192;-56
2023/05/21 00:18:54;;;;;;;13.25;11.85;;;;;;;17.04;68.43;99990.59;10382845;28;20238;-56
2023/05/21 00:23:55;;;;;;;12.77;11.48;;;;;;;17.05;68.67;99973.44;10377134;28;20517;-55
2023/05/21 00:28:57;;;;;;;12.38;11.20;;;;;;;16.93;68.87;99968.44;10370785;28;20146;-56
2023/05/21 00:33:59;;;;;;;12.88;11.43;;;;;;;16.94;68.83;99951.28;10384880;28;25576;-55
2023/05/21 00:39:01;;;;;;;12.80;11.50;;;;;;;16.90;69.05;99947.28;10381127;28;20056;-56
2023/05/21 00:44:02;;;;;;;12.25;10.43;;;;;;;16.84;69.07;99937.16;10379223;28;20068;-55
2023/05/21 00:49:06;;;;;;;;;;;;;;;16.99;69.23;99944.56;10379577;28;20099;-56
2023/05/21 00:54:08;;;;;;;10.85;9.85;;;;;;;16.89;68.62;99925.94;10381471;28;19928;-56
2023/05/21 00:59:10;;;;;;;11.77;10.68;;;;;;;16.82;69.04;99916.88;10373652;28;20067;-55
2023/05/21 01:04:12;;;;;;;11.77;10.57;;;;;;;16.95;68.92;99936.03;10380993;28;20050;-56
2023/05/21 01:09:14;;;;;;;11.57;10.52;;;;;;;16.87;69.27;99931.47;10372829;28;20109;-56
2023/05/21 01:14:17;;;;;;;12.13;10.70;;;;;;;16.84;69.45;99925.59;10376718;28;20045;-56
2023/05/21 01:19:21;;;;;;;13.73;11.45;;;;;;;16.90;69.26;99920.41;10377789;28;20060;-55
2023/05/21 01:24:22;;;;;;;12.13;10.93;;;;;;;16.74;69.88;99912.38;10382443;28;20472;-56
2023/05/21 01:29:24;;;;;;;12.07;10.88;;;;;;;16.71;70.16;99910.00;10376094;28;20215;-57
2023/05/21 01:34:48;;;;;;;11.82;10.63;;;;;;;16.65;70.56;99911.53;10376334;28;20056;-57
2023/05/21 01:39:54;;;;;;;;;;;;;;;16.69;70.75;99906.66;10383876;28;20061;-60
2023/05/21 01:44:58;;;;;;;11.98;9.93;;;;;;;16.69;70.12;99899.41;10373088;28;20015;-56
2023/05/21 01:50:00;;;;;;;;;;;;;;;16.76;70.69;99905.78;10380777;28;20141;-56
2023/05/21 01:55:02;;;;;;;11.25;10.15;;;;;;;16.84;69.66;99910.28;10378584;28;19927;-56
2023/05/21 02:00:05;;;;;;;11.95;10.85;;;;;;;16.84;69.83;99915.66;10370676;28;20580;-57
2023/05/21 02:05:08;;;;;;;10.85;9.75;;;;;;;16.81;69.92;99899.88;10378921;28;20128;-55
2023/05/21 02:10:09;;;;;;;11.90;10.68;;;;;;;16.72;70.82;99904.47;10376293;28;20057;-55
2023/05/21 02:15:13;;;;;;;10.88;9.80;;;;;;;16.72;70.42;99882.13;10382495;28;20056;-56
2023/05/21 02:20:14;;;;;;;13.30;11.57;;;;;;;16.82;70.40;99901.56;10376500;28;20133;-56
2023/05/21 02:25:18;;;;;;;12.40;11.20;;;;;;;16.84;70.39;99888.78;10373665;28;20193;-56
2023/05/21 02:30:20;;;;;;;12.45;11.30;;;;;;;16.81;69.80;99883.75;10375725;28;21082;-56
2023/05/21 02:35:22;;;;;;;13.05;11.63;;;;;;;16.74;70.52;99894.38;10373577;28;20120;-56
2023/05/21 02:40:24;;;;;;;11.80;10.70;;;;;;;16.67;71.11;99892.56;10377033;28;20045;-56
2023/05/21 02:45:25;;;;;;;11.52;10.43;;;;;;;16.76;70.79;99892.34;10375998;28;20049;-56
2023/05/21 02:50:27;;;;;;;11.55;10.05;;;;;;;16.79;70.49;99891.16;10376963;28;20048;-56
2023/05/21 02:55:28;;;;;;;12.13;10.48;;;;;;;16.72;71.04;99895.56;10365688;28;20050;-56
2023/05/21 03:00:30;;;;;;;13.52;12.02;;;;;;;16.77;70.72;99887.81;10361466;28;20065;-56
2023/05/21 03:05:31;;;;;;;12.90;11.57;;;;;;;16.77;70.74;99888.66;10355776;28;20676;-56
2023/05/21 03:10:33;;;;;;;11.95;10.75;;;;;;;16.78;70.66;99882.28;10375469;28;20095;-56
2023/05/21 03:15:35;;;;;;;12.75;11.40;;;;;;;16.80;70.63;99876.72;10375869;28;20059;-56
2023/05/21 03:20:42;;;;;;;11.60;10.32;;;;;;;16.76;70.74;99875.38;10384730;28;20060;-56
2023/05/21 03:25:44;;;;;;;11.40;10.25;;;;;;;16.84;70.54;99886.09;10359755;28;20136;-56
2023/05/21 03:30:48;;;;;;;12.13;10.93;;;;;;;16.74;70.40;99872.03;10369621;28;20218;-55
2023/05/21 03:35:49;;;;;;;11.48;10.38;;;;;;;16.50;70.89;99832.63;10376021;28;20132;-55
2023/05/21 03:40:51;;;;;;;11.85;10.65;;;;;;;16.77;70.51;99875.22;10377620;28;20422;-56
2023/05/21 03:45:53;;;;;;;13.80;11.75;;;;;;;16.75;70.67;99873.69;10376757;28;20198;-56
2023/05/21 03:50:55;;;;;;;12.13;10.75;;;;;;;16.75;70.65;99873.69;10371160;28;20480;-57
2023/05/21 03:55:56;;;;;;;11.75;10.70;;;;;;;16.75;70.67;99879.06;10378232;28;20053;-56
2023/05/21 04:01:00;;;;;;;12.50;11.18;;;;;;;16.79;70.92;99880.41;10375469;28;20517;-57
2023/05/21 04:06:02;;;;;;;12.88;11.50;;;;;;;16.84;70.44;99883.41;10373700;28;20132;-57
2023/05/21 04:11:04;;;;;;;12.48;11.25;;;;;;;16.73;71.16;99881.94;10372819;28;20227;-56
2023/05/21 04:16:09;;;;;;;12.30;11.00;;;;;;;16.73;71.05;99876.56;10376227;28;20334;-57
2023/05/21 04:21:11;;;;;;;12.45;11.18;;;;;;;16.59;71.52;99859.31;10369274;28;20054;-57
2023/05/21 04:26:15;;;;;;;12.23;10.93;;;;;;;16.74;71.14;99880.94;10369959;28;20056;-57
2023/05/21 04:31:16;;;;;;;11.73;10.63;;;;;;;16.75;71.36;99889.81;10383489;28;20056;-57
2023/05/21 04:36:18;;;;;;;14.68;11.13;;;;;;;16.78;71.41;99889.47;10382658;28;20049;-57
2023/05/21 04:41:20;;;;;;;12.65;11.45;;;;;;;16.82;70.89;99896.19;10383772;28;20117;-57
2023/05/21 04:46:24;;;;;;;12.45;11.15;;;;;;;16.79;71.25;99891.16;10379932;28;20052;-57
2023/05/21 04:51:26;;;;;;;11.77;10.65;;;;;;;16.81;71.22;99891.81;10381952;28;20708;-57
2023/05/21 04:56:28;;;;;;;12.38;11.05;;;;;;;16.76;71.42;99896.88;10376852;28;20053;-57
2023/05/21 05:01:31;;;;;;;12.75;11.48;;;;;;;16.73;71.88;99894.53;10382493;28;20052;-57
2023/05/21 05:06:32;;;;;;;12.68;11.57;;;;;;;16.72;71.93;99901.78;10383115;28;20092;-57
2023/05/21 05:11:34;;;;;;;12.90;11.50;;;;;;;16.70;71.83;99882.28;10380379;28;20103;-57
2023/05/21 05:16:35;;;;;;;12.93;11.65;;;;;;;16.64;72.14;99898.28;10379044;28;20229;-60
2023/05/21 05:21:37;;;;;;;13.15;11.52;;;;;;;16.41;72.57;99854.16;10379927;28;20138;-57
2023/05/21 05:26:38;;;;;;;12.65;11.45;;;;;;;16.68;72.91;99894.22;10377777;28;20041;-57
2023/05/21 05:31:40;;;;;;;12.85;11.63;;;;;;;16.77;72.25;99885.13;10379198;28;20769;-57
2023/05/21 05:36:41;;;;;;;13.77;12.38;;;;;;;16.80;72.27;99887.47;10357994;28;20056;-57
2023/05/21 05:41:45;;;;;;;12.98;10.60;;;;;;;16.86;71.78;99886.78;10364650;28;20049;-57
2023/05/21 05:46:47;;;;;;;11.60;10.52;;;;;;;16.88;72.19;99892.84;10374706;28;20599;-57
2023/05/21 05:51:49;;;;;;;12.38;11.07;;;;;;;16.93;71.74;99890.50;10376068;28;20055;-57
2023/05/21 05:56:50;;;;;;;14.35;12.10;;;;;;;16.92;72.31;99886.13;10384393;28;20143;-57
2023/05/21 06:01:52;;;;;;;12.40;11.20;;;;;;;17.07;71.64;99886.22;10374231;28;20060;-57
2023/05/21 06:06:57;;;;;;;12.07;10.93;;;;;;;17.15;71.61;99885.34;10380315;28;20055;-57
2023/05/21 06:11:59;;;;;;;12.23;11.02;;;;;;;17.22;71.14;99890.84;10376133;28;20075;-58
2023/05/21 06:17:00;;;;;;;12.77;11.38;;;;;;;17.19;71.16;99877.75;10385896;28;20076;-58
2023/05/21 06:22:02;;;;;;;12.30;11.10;;;;;;;17.24;71.63;99892.34;10375208;28;20195;-57
2023/05/21 06:27:04;;;;;;;13.07;11.88;;;;;;;17.36;71.25;99892.81;10382404;28;20582;-57
2023/05/21 06:32:07;;;;;;;12.23;11.02;;;;;;;17.41;70.97;99889.56;10388071;28;20049;-56
2023/05/21 06:37:09;;;;;;;12.60;11.35;;;;;;;17.52;71.13;99882.94;10382009;28;20717;-61
2023/05/21 06:42:10;;;;;;;13.02;11.65;;;;;;;17.56;71.03;99892.34;10383190;28;20420;-57
2023/05/21 06:47:12;;;;;;;14.02;12.52;;;;;;;17.69;70.78;99887.22;10383879;28;20532;-58
2023/05/21 06:52:13;;;;;;;12.77;11.10;;;;;;;17.92;70.38;99886.41;10379278;28;20049;-60
2023/05/21 06:57:15;;;;;;;12.35;11.13;;;;;;;18.08;69.58;99890.84;10375958;28;20075;-57
2023/05/21 07:02:17;;;;;;;12.45;11.25;;;;;;;18.23;69.25;99883.63;10377781;28;20114;-58
2023/05/21 07:07:19;;;;;;;11.90;10.80;;;;;;;18.54;68.63;99890.75;10379204;28;20045;-58
2023/05/21 07:12:20;;;;;;;11.75;10.73;;;;;;;18.68;68.33;99891.78;10379444;28;20053;-57
2023/05/21 07:17:23;;;;;;;12.80;11.43;;;;;;;18.77;67.90;99895.22;10373573;28;20072;-57
2023/05/21 07:22:25;;;;;;;11.23;10.13;;;;;;;18.81;67.89;99896.50;10359197;28;20052;-57
2023/05/21 07:27:28;;;;;;;10.98;9.88;;;;;;;19.11;67.63;99891.13;10377958;28;20060;-56
2023/05/21 07:32:30;;;;;;;11.18;9.85;;;;;;;19.27;66.94;99888.22;10378945;28;20881;-60
2023/05/21 07:37:32;;;;;;;11.27;10.18;;;;;;;19.38;66.53;99882.34;10377492;28;20057;-57
2023/05/21 07:42:33;;;;;;;13.07;11.60;;;;;;;19.50;66.08;99881.81;10377813;28;20041;-57
2023/05/21 07:47:35;;;;;;;11.38;10.27;;;;;;;19.71;65.57;99876.47;10375616;28;20052;-57
2023/05/21 07:52:36;;;;;;;12.13;10.82;;;;;;;19.84;65.15;99870.38;10376938;28;20056;-56
2023/05/21 07:57:38;;;;;;;11.57;10.23;;;;;;;19.83;65.60;99874.13;10373410;28;20073;-56
2023/05/21 08:02:39;;;;;;;11.88;10.57;;;;;;;19.98;65.26;99867.78;10378199;28;20176;-56
2023/05/21 08:07:41;;;;;;;11.73;10.63;;;;;;;19.96;65.22;99867.97;10391943;28;20057;-57
2023/05/21 08:12:43;;;;;;;11.52;10.43;;;;;;;19.99;65.37;99874.88;10386726;28;20126;-56
2023/05/21 08:17:44;;;;;;;12.30;11.10;;;;;;;19.98;65.37;99863.22;10384610;28;20114;-57
2023/05/21 08:22:47;;;;;;;11.68;10.65;;;;;;;20.12;65.73;99881.22;10382997;28;20080;-57
2023/05/21 08:27:48;;;;;;;10.60;9.57;;;;;;;20.18;65.58;99886.88;10382260;28;20182;-57
2023/05/21 08:32:53;;;;;;;11.65;10.55;;;;;;;20.14;65.81;99865.63;10388138;28;21020;-57
2023/05/21 08:37:58;;;;;;;11.27;10.13;;;;;;;20.36;65.49;99879.13;10388021;28;20222;-57
2023/05/21 08:43:00;;;;;;;12.32;11.13;;;;;;;20.40;65.00;99861.47;10369749;28;20293;-57
2023/05/21 08:48:03;;;;;;;12.27;11.18;;;;;;;20.73;65.16;99874.41;10387889;28;20464;-57
2023/05/21 08:53:54;;;;;;;11.47;10.37;;;;;;;21.19;64.15;99872.94;11041346;22;20176;-57
2023/05/21 08:58:58;;;;;;;11.82;10.63;;;;;;;21.56;63.13;99867.25;10246997;28;20050;-57
2023/05/21 09:04:01;;;;;;;13.00;10.45;;;;;;;21.89;61.63;99861.91;10277644;28;20061;-56
2023/05/21 09:09:31;;;;;;;11.70;10.52;;;;;;;22.15;61.03;99866.47;10265936;28;20088;-56
2023/05/21 09:14:34;;;;;;;11.10;10.00;;;;;;;22.37;60.00;99860.88;10278059;28;20054;-60
2023/05/21 09:19:35;;;;;;;;;;;;;;;22.54;60.93;99863.97;10282091;28;20727;-57
2023/05/21 09:24:37;;;;;;;10.10;8.85;;;;;;;22.95;59.70;99860.94;10251771;28;19925;-56
2023/05/21 09:29:41;;;;;;;13.85;10.80;;;;;;;23.26;58.34;99855.84;10277384;28;20613;-56
2023/05/21 09:34:42;;;;;;;9.93;9.13;;;;;;;23.52;56.80;99856.72;10279086;28;20054;-60
2023/05/21 09:39:46;;;;;;;9.57;8.68;;;;;;;23.68;56.83;99849.94;10278693;28;20309;-56
2023/05/21 09:44:48;;;;;;;10.73;9.60;;;;;;;23.86;56.03;99843.78;10282305;28;20061;-55
2023/05/21 09:49:49;;;;;;;11.15;10.13;;;;;;;24.03;55.66;99844.88;10271090;28;20068;-55
2023/05/21 09:54:52;;;;;;;10.32;9.35;;;;;;;24.21;53.41;99841.38;10278337;28;20159;-55
2023/05/21 09:59:53;;;;;;;10.23;9.33;;;;;;;24.28;53.82;99838.63;10274609;28;20707;-57
2023/05/21 10:04:56;;;;;;;10.00;9.20;;;;;;;24.58;53.17;99841.47;10253800;28;20050;-57
2023/05/21 10:10:00;;;;;;;9.63;8.83;;;;;;;24.67;52.43;99826.50;10277967;28;20085;-57
2023/05/21 10:15:08;;;;;;;9.93;9.02;;;;;;;24.72;51.61;99814.94;10277986;28;20170;-57
2023/05/21 10:20:11;;;;;;;10.07;9.27;;;;;;;24.86;51.30;99799.28;10267937;28;20054;-57
2023/05/21 10:25:13;;;;;;;9.18;8.38;;;;;;;25.06;51.54;99821.63;10271728;28;20054;-58
2023/05/21 10:30:17;;;;;;;11.53;10.33;;;;;;;25.19;51.92;99814.34;10258796;28;20058;-57
2023/05/21 10:35:18;;;;;;;9.43;8.50;;;;;;;25.31;51.30;99811.69;10267949;28;20308;-57
2023/05/21 10:40:20;;;;;;;11.23;8.52;;;;;;;25.63;50.19;99806.81;10258456;28;20077;-57
2023/05/21 10:45:57;;;;;;;8.85;8.05;;;;;;;25.92;49.50;99798.81;10258852;28;20057;-57
2023/05/21 10:51:23;;;;;;;7.25;6.55;;;;;;;26.04;46.17;99799.66;10270298;28;20160;-56
2023/05/21 10:56:35;;;;;;;8.10;7.40;;;;;;;26.17;44.82;99797.78;10266002;28;20157;-60
2023/05/21 11:01:39;;;;;;;7.22;6.63;;;;;;;26.15;44.34;99797.19;10265746;28;20166;-57
2023/05/21 11:06:46;;;;;;;6.82;6.22;;;;;;;26.24;42.82;99798.47;10271307;28;20050;-57
2023/05/21 11:11:51;;;;;;;7.10;6.40;;;;;;;26.42;42.39;99801.09;10262980;28;20061;-59
2023/05/21 11:16:53;;;;;;;7.20;6.50;;;;;;;26.55;42.45;99800.00;10266831;28;20614;-58
2023/05/21 11:21:55;;;;;;;7.30;6.70;;;;;;;26.61;41.45;99798.22;10272012;28;20061;-57
2023/05/21 11:27:03;;;;;;;6.80;6.10;;;;;;;26.81;41.31;99797.81;10267332;28;20058;-57
2023/05/21 11:32:05;;;;;;;7.55;6.85;;;;;;;26.75;41.04;99796.06;10270132;28;20145;-56
2023/05/21 11:37:21;;;;;;;;;;;;;;;26.66;40.36;99783.84;10270809;28;20061;-58
2023/05/21 11:42:34;;;;;;;6.70;6.20;;;;;;;26.57;41.16;99775.19;10261469;28;19932;-57
2023/05/21 11:47:35;;;;;;;8.80;7.03;;;;;;;26.60;41.99;99782.88;10276645;28;20057;-57
2023/05/21 11:52:37;;;;;;;7.13;6.43;;;;;;;26.89;41.65;99782.94;10274614;28;20209;-57
2023/05/21 11:57:41;;;;;;;8.85;7.00;;;;;;;27.29;40.98;99782.06;10277011;28;21073;-58
2023/05/21 12:02:46;;;;;;;6.75;6.13;;;;;;;27.60;40.59;99778.00;10278846;28;20054;-56
2023/05/21 12:07:49;;;;;;;7.70;6.88;;;;;;;27.62;40.59;99766.81;10280166;28;20053;-58
2023/05/21 12:12:51;;;;;;;7.65;6.85;;;;;;;27.69;39.78;99762.03;10265187;28;20052;-57
2023/05/21 12:17:57;;;;;;;7.05;6.43;;;;;;;27.80;40.11;99766.59;10276727;28;20046;-56
2023/05/21 12:22:58;;;;;;;7.37;6.67;;;;;;;28.02;40.07;99772.13;10276354;28;20061;-57
2023/05/21 12:28:02;;;;;;;6.70;6.20;;;;;;;28.02;39.70;99763.13;10264323;28;20057;-57
2023/05/21 12:33:04;;;;;;;6.47;5.88;;;;;;;28.11;39.53;99761.59;10275148;28;20082;-57
2023/05/21 12:38:08;;;;;;;7.20;6.28;;;;;;;28.23;37.66;99752.47;10277686;28;20050;-57
2023/05/21 12:43:10;;;;;;;6.13;5.53;;;;;;;28.30;38.46;99748.47;10274629;28;20725;-57
2023/05/21 12:48:11;;;;;;;6.90;6.30;;;;;;;28.13;36.10;99759.44;10263097;28;20054;-57
2023/05/21 12:53:13;;;;;;;6.23;5.60;;;;;;;28.17;35.67;99771.53;10243943;28;20047;-58
2023/05/21 12:58:15;;;;;;;6.70;6.10;;;;;;;28.16;33.65;99769.88;10275157;28;20620;-57
2023/05/21 13:03:17;;;;;;;6.25;5.57;;;;;;;28.13;33.67;99762.16;10257802;28;20089;-57
2023/05/21 13:08:19;;;;;;;6.47;5.88;;;;;;;28.20;33.70;99756.53;10276454;28;20649;-57
2023/05/21 13:13:20;;;;;;;6.47;5.87;;;;;;;28.19;33.48;99752.97;10277625;28;20058;-57
2023/05/21 13:18:22;;;;;;;6.68;6.07;;;;;;;28.29;34.05;99751.47;10274369;28;20050;-58
2023/05/21 13:23:24;;;;;;;6.43;5.83;;;;;;;28.27;33.04;99753.59;10258884;28;20803;-57
2023/05/21 13:28:25;;;;;;;6.75;6.05;;;;;;;28.14;33.83;99750.16;10278393;28;20243;-57
2023/05/21 13:33:27;;;;;;;7.65;6.32;;;;;;;28.12;35.25;99741.38;10272837;28;20054;-57
2023/05/21 13:38:31;;;;;;;6.95;6.25;;;;;;;28.23;35.35;99730.59;10274123;28;20709;-57
2023/05/21 13:43:32;;;;;;;6.72;6.10;;;;;;;28.26;34.74;99736.38;10273014;28;20050;-57
2023/05/21 13:48:34;;;;;;;6.20;5.70;;;;;;;28.07;34.97;99738.56;10274772;28;20906;-57
2023/05/21 13:53:35;;;;;;;6.40;5.80;;;;;;;28.09;34.25;99747.38;10252539;28;20085;-57
2023/05/21 13:58:39;;;;;;;6.63;6.07;;;;;;;28.05;33.10;99748.94;10270495;28;20127;-57
2023/05/21 14:03:40;;;;;;;6.00;5.50;;;;;;;28.02;33.99;99746.69;10274173;28;20059;-57
2023/05/21 14:08:42;;;;;;;5.82;5.35;;;;;;;28.00;33.46;99732.47;10271292;28;20050;-57
2023/05/21 14:13:43;;;;;;;7.33;6.63;;;;;;;27.91;34.81;99728.44;10271245;28;20934;-57
2023/05/21 14:18:45;;;;;;;7.27;6.23;;;;;;;27.79;34.01;99740.31;10277322;28;20731;-57
2023/05/21 14:23:47;;;;;;;6.13;5.63;;;;;;;27.72;35.52;99726.00;10275578;28;20052;-57
2023/05/21 14:28:49;;;;;;;7.00;6.40;;;;;;;27.70;34.90;99725.41;10273260;28;20141;-57
2023/05/21 14:33:50;;;;;;;7.27;6.60;;;;;;;27.60;35.03;99728.00;10265979;28;20369;-57
2023/05/21 14:38:52;;;;;;;7.07;6.43;;;;;;;27.51;34.97;99720.19;10272584;28;20320;-56
2023/05/21 14:43:53;;;;;;;6.45;5.95;;;;;;;27.51;35.82;99714.72;10271572;28;20411;-56
2023/05/21 14:48:57;;;;;;;7.38;6.68;;;;;;;27.47;36.34;99719.06;10258505;28;20404;-54
2023/05/21 14:53:59;;;;;;;6.72;6.03;;;;;;;27.45;36.24;99720.38;10272882;28;20061;-55
2023/05/21 14:59:00;;;;;;;9.07;6.25;;;;;;;27.41;36.16;99728.22;10269248;28;20049;-54
2023/05/21 15:04:02;;;;;;;6.25;5.68;;;;;;;27.35;36.67;99726.47;10275814;28;20139;-54
2023/05/21 15:09:04;;;;;;;6.40;5.90;;;;;;;27.26;36.02;99712.38;10266995;28;20069;-54
2023/05/21 15:14:05;;;;;;;6.63;6.13;;;;;;;27.21;36.06;99717.75;10270932;28;20067;-54
2023/05/21 15:19:07;;;;;;;6.97;6.20;;;;;;;27.16;36.17;99713.03;10269995;28;20058;-55
2023/05/21 15:24:10;;;;;;;6.43;5.90;;;;;;;27.14;36.67;99709.72;10263987;28;20462;-54
2023/05/21 15:29:11;;;;;;;7.00;6.30;;;;;;;27.10;37.53;99715.94;10269616;28;20058;-55
2023/05/21 15:34:14;;;;;;;6.55;5.90;;;;;;;27.05;37.19;99722.09;10268205;28;20049;-55
2023/05/21 15:39:15;;;;;;;5.97;5.25;;;;;;;27.02;37.14;99711.66;10266523;28;20073;-54
2023/05/21 15:44:17;;;;;;;6.20;5.70;;;;;;;27.00;37.47;99705.63;10272667;28;20376;-57
2023/05/21 15:49:18;;;;;;;6.13;5.63;;;;;;;26.96;36.48;99699.00;10268950;28;20046;-56
2023/05/21 15:54:20;;;;;;;7.73;5.93;;;;;;;26.92;34.39;99695.13;10243288;28;20061;-55
2023/05/21 15:59:24;;;;;;;6.38;5.03;;;;;;;26.90;35.90;99698.09;10263629;28;20046;-54
2023/05/21 16:04:25;;;;;;;5.88;5.40;;;;;;;26.89;36.06;99690.13;10269129;28;20152;-55
2023/05/21 16:09:27;;;;;;;7.35;5.78;;;;;;;26.93;36.17;99694.03;10267831;28;20538;-54
2023/05/21 16:14:28;;;;;;;6.28;5.68;;;;;;;26.93;35.73;99692.16;10252165;28;20047;-56
2023/05/21 16:19:30;;;;;;;6.45;5.65;;;;;;;26.95;36.53;99689.16;10270789;28;20059;-54
2023/05/21 16:24:31;;;;;;;5.90;5.40;;;;;;;26.92;36.01;99690.47;10243953;28;21289;-55
2023/05/21 16:29:33;;;;;;;6.25;5.65;;;;;;;26.90;36.32;99697.25;10277023;28;20142;-55
2023/05/21 16:34:35;;;;;;;7.25;6.55;;;;;;;26.88;36.06;99693.94;10282217;28;20144;-56
2023/05/21 16:39:36;;;;;;;6.88;6.28;;;;;;;26.84;36.40;99699.03;10282251;28;20162;-55
2023/05/21 16:44:38;;;;;;;6.28;5.68;;;;;;;26.80;35.74;99706.91;10282745;28;20061;-55
2023/05/21 16:49:39;;;;;;;7.00;6.40;;;;;;;26.77;35.76;99692.94;10282787;28;20585;-55
2023/05/21 16:54:41;;;;;;;6.53;5.90;;;;;;;26.74;35.58;99696.16;10281113;28;20054;-55
2023/05/21 16:59:46;;;;;;;6.38;5.88;;;;;;;26.73;35.88;99692.56;10279200;28;21095;-55
2023/05/21 17:04:47;;;;;;;6.28;5.68;;;;;;;26.71;36.17;99700.19;10280913;28;20203;-56
2023/05/21 17:09:49;;;;;;;6.40;5.80;;;;;;;26.68;35.49;99694.38;10284403;28;20548;-55
2023/05/21 17:14:50;;;;;;;6.78;6.13;;;;;;;26.67;36.39;99703.66;10263955;28;20050;-56
2023/05/21 17:19:52;;;;;;;7.20;6.50;;;;;;;26.65;36.11;99698.41;10278035;28;20073;-56
2023/05/21 17:24:54;;;;;;;8.23;7.43;;;;;;;26.62;36.44;99693.44;10276116;28;20062;-56
2023/05/21 17:29:56;;;;;;;7.20;6.50;;;;;;;26.60;37.03;99692.81;10253065;28;20391;-56
2023/05/21 17:34:57;;;;;;;6.65;6.05;;;;;;;26.48;36.91;99683.84;10282138;28;20061;-56
2023/05/21 17:39:59;;;;;;;6.00;5.50;;;;;;;26.52;36.86;99712.31;10260691;28;20057;-57
2023/05/21 17:45:00;;;;;;;7.15;6.55;;;;;;;26.45;37.19;99709.72;10282041;28;20108;-56
2023/05/21 17:56:23;;;;;;;6.40;5.63;;;;;;;26.29;37.72;99711.31;10238521;28;20168;-56
2023/05/21 18:01:24;;;;;;;6.57;5.97;;;;;;;26.24;37.78;99713.94;10276942;28;20058;-54
2023/05/21 18:06:27;;;;;;;7.30;6.60;;;;;;;26.18;37.50;99715.72;10249312;28;20917;-57
2023/05/21 18:11:29;;;;;;;;;;;;;;;26.11;36.86;99706.84;10273754;28;20057;-56
2023/05/21 18:16:31;;;;;;;6.65;6.05;;;;;;;26.06;38.19;99714.91;10271779;28;19952;-56
2023/05/21 18:21:33;;;;;;;6.90;6.30;;;;;;;26.00;38.91;99711.25;10260745;28;20050;-56
2023/05/21 18:26:35;;;;;;;7.10;6.43;;;;;;;25.92;38.63;99701.47;10276371;28;20423;-56
2023/05/21 18:31:36;;;;;;;7.00;6.30;;;;;;;25.87;39.42;99706.00;10263343;28;20532;-55
2023/05/21 18:36:38;;;;;;;7.60;6.82;;;;;;;25.77;40.47;99699.22;10259097;28;20048;-57
2023/05/21 18:41:40;;;;;;;7.47;6.88;;;;;;;25.73;41.18;99700.78;10242586;28;20064;-57
2023/05/21 18:46:42;;;;;;;6.88;6.25;;;;;;;25.65;41.42;99698.41;10270467;28;20073;-56
2023/05/21 18:51:44;;;;;;;7.53;6.50;;;;;;;25.59;41.71;99708.34;10278984;28;20440;-58
2023/05/21 18:56:45;;;;;;;8.90;6.75;;;;;;;25.51;42.31;99708.72;10276725;28;20053;-56
2023/05/21 19:01:47;;;;;;;7.30;6.70;;;;;;;25.40;42.15;99712.22;10276351;28;20811;-56
2023/05/21 19:06:48;;;;;;;8.82;6.78;;;;;;;25.31;42.38;99709.06;10273606;28;20121;-56
2023/05/21 19:11:50;;;;;;;7.70;6.72;;;;;;;25.21;41.79;99703.31;10271955;28;20149;-57
2023/05/21 19:16:51;;;;;;;6.25;5.63;;;;;;;24.93;42.42;99699.31;10290803;28;20049;-55
2023/05/21 19:21:53;;;;;;;7.20;6.15;;;;;;;24.89;42.12;99711.72;10315184;28;20051;-55
2023/05/21 19:26:54;;;;;;;6.72;6.13;;;;;;;24.83;41.92;99720.81;10293888;28;20738;-56
2023/05/21 19:31:57;;;;;;;7.35;6.75;;;;;;;24.80;42.31;99719.41;10285566;28;20106;-56
2023/05/21 19:36:58;;;;;;;7.60;6.80;;;;;;;24.79;42.59;99719.63;10276938;28;20058;-57
2023/05/21 19:42:00;;;;;;;6.95;6.25;;;;;;;24.78;42.45;99728.84;10271665;28;20084;-56
2023/05/21 19:47:01;;;;;;;7.55;6.90;;;;;;;24.73;42.96;99737.69;10257543;28;20145;-55
2023/05/21 19:52:04;;;;;;;7.03;6.43;;;;;;;24.68;43.56;99732.09;10270253;28;20050;-55
2023/05/21 19:57:05;;;;;;;8.38;7.68;;;;;;;24.63;43.26;99734.69;10272004;28;20073;-55
2023/05/21 20:02:11;;;;;;;7.00;6.43;;;;;;;24.53;43.16;99735.22;10284628;28;20092;-56
2023/05/21 20:07:12;;;;;;;7.18;6.38;;;;;;;24.48;42.83;99732.31;10282880;28;20050;-55
2023/05/21 20:12:15;;;;;;;6.50;5.90;;;;;;;24.45;43.17;99732.78;10280372;28;20058;-56
2023/05/21 20:17:19;;;;;;;7.93;7.18;;;;;;;24.43;43.64;99734.91;10281956;28;20537;-54
2023/05/21 20:22:21;;;;;;;9.10;6.65;;;;;;;24.38;43.84;99734.75;10276198;28;20064;-57
2023/05/21 20:27:22;;;;;;;7.03;6.30;;;;;;;24.31;44.28;99732.94;10261203;28;20066;-56
2023/05/21 20:32:23;;;;;;;7.78;6.80;;;;;;;24.29;44.11;99734.19;10277136;28;20475;-56
2023/05/21 20:37:25;;;;;;;7.68;6.97;;;;;;;24.21;44.51;99735.34;10275796;28;20100;-56
2023/05/21 20:42:32;;;;;;;7.63;6.85;;;;;;;24.14;45.32;99740.00;10281847;28;20053;-56
2023/05/21 20:47:34;;;;;;;7.90;7.20;;;;;;;24.08;46.05;99743.63;10281279;28;20050;-55
2023/05/21 20:52:36;;;;;;;7.67;6.87;;;;;;;23.98;46.33;99739.53;10260598;28;20137;-55
2023/05/21 20:57:38;;;;;;;8.98;7.30;;;;;;;23.90;46.57;99731.69;10262969;28;20837;-56
2023/05/21 21:02:39;;;;;;;8.50;7.60;;;;;;;23.88;47.60;99732.97;10278870;28;20712;-55
2023/05/21 21:07:41;;;;;;;8.38;7.68;;;;;;;23.80;48.37;99737.59;10251824;28;20200;-56
2023/05/21 21:12:43;;;;;;;9.48;8.48;;;;;;;23.75;49.42;99736.59;10258877;28;20524;-56
2023/05/21 21:17:44;;;;;;;9.32;8.52;;;;;;;23.70;50.47;99739.16;10275959;28;20088;-56
2023/05/21 21:22:46;;;;;;;10.55;9.65;;;;;;;23.53;52.15;99737.00;10266124;28;20132;-57
2023/05/21 21:27:48;;;;;;;11.63;10.40;;;;;;;23.43;53.50;99739.38;10272647;28;20065;-57
2023/05/21 21:32:49;;;;;;;10.63;9.77;;;;;;;23.36;53.74;99735.88;10271872;28;20058;-58
2023/05/21 21:37:51;;;;;;;11.52;10.38;;;;;;;23.24;54.49;99739.31;10272581;28;21031;-58
2023/05/21 21:42:52;;;;;;;12.50;11.40;;;;;;;23.20;55.28;99743.50;10273918;28;20156;-57
2023/05/21 21:47:54;;;;;;;12.52;11.43;;;;;;;23.14;55.06;99752.53;10272269;28;20668;-57
2023/05/21 21:52:56;;;;;;;12.52;11.38;;;;;;;23.04;55.49;99755.66;10253489;28;20065;-58
2023/05/21 21:57:57;;;;;;;11.93;10.75;;;;;;;22.95;56.28;99746.13;10268823;28;20545;-57
2023/05/21 22:03:02;;;;;;;12.13;11.02;;;;;;;22.83;56.06;99740.53;10269856;28;20697;-58
2023/05/21 22:08:04;;;;;;;11.75;10.75;;;;;;;22.83;56.98;99743.25;10254382;28;20141;-57
2023/05/21 22:13:05;;;;;;;10.95;9.95;;;;;;;22.80;57.16;99740.97;10269122;28;20066;-57
2023/05/21 22:18:08;;;;;;;11.95;10.82;;;;;;;22.77;57.42;99747.69;10269210;28;20884;-57
2023/05/21 22:23:09;;;;;;;13.00;11.80;;;;;;;22.74;57.80;99748.13;10271151;28;20062;-57
2023/05/21 22:28:11;;;;;;;12.13;11.13;;;;;;;22.69;57.82;99742.50;10273980;28;20588;-57
2023/05/21 22:33:12;;;;;;;11.65;10.65;;;;;;;22.59;57.94;99740.25;10237696;28;20349;-57
2023/05/21 22:38:14;;;;;;;11.48;10.48;;;;;;;22.59;58.11;99750.25;10257638;28;20046;-58
2023/05/21 22:43:15;;;;;;;12.40;11.30;;;;;;;22.54;57.91;99750.91;10261696;28;20057;-57
2023/05/21 22:48:20;;;;;;;12.07;10.60;;;;;;;22.49;58.53;99744.44;10270689;28;20050;-58
2023/05/21 22:53:23;;;;;;;12.55;11.35;;;;;;;22.43;58.44;99759.72;10273582;28;20054;-58
2023/05/21 22:58:25;;;;;;;11.27;10.17;;;;;;;22.36;58.26;99750.75;10272750;28;20455;-57
2023/05/21 23:03:26;;;;;;;11.90;10.90;;;;;;;22.31;58.40;99750.50;10275377;28;20855;-57
2023/05/21 23:08:27;;;;;;;11.05;9.93;;;;;;;22.28;58.38;99756.38;10270443;28;20065;-57
2023/05/21 23:13:29;;;;;;;11.88;10.77;;;;;;;22.20;58.49;99758.28;10267145;28;20050;-58
2023/05/21 23:18:31;;;;;;;11.43;10.35;;;;;;;22.13;57.92;99760.16;10257075;28;21028;-57
2023/05/21 23:23:33;;;;;;;11.40;10.50;;;;;;;22.11;58.42;99762.22;10272286;28;20050;-57